createdAt,value
2023-03-31T00:02:16.145Z,4.63
2023-03-31T00:05:21.397Z,5.45
2023-03-31T00:08:30.043Z,6.07
2023-03-31T00:11:35.415Z,5.88
2023-03-31T00:14:40.643Z,6.32
2023-03-31T00:17:47.451Z,6.32
2023-03-31T00:20:53.377Z,6.65
2023-03-31T00:24:00.566Z,6.75
2023-03-31T00:27:06.265Z,6.53
2023-03-31T00:30:12.878Z,6.15
2023-03-31T00:33:17.690Z,5.72
2023-03-31T00:36:29.370Z,5.72
2023-03-31T00:39:35.326Z,6.07
2023-03-31T00:42:42.097Z,6.30
2023-03-31T00:45:46.667Z,6.60
2023-03-31T00:48:57.503Z,6.03
2023-03-31T00:52:15.187Z,5.88
2023-03-31T00:55:27.866Z,5.35
2023-03-31T00:58:33.263Z,5.45
2023-03-31T01:01:42.900Z,5.93
2023-03-31T01:04:57.467Z,7.40
2023-03-31T01:08:02.649Z,3.80
2023-03-31T01:11:10.602Z,5.18
2023-03-31T01:14:15.457Z,4.80
2023-03-31T01:17:22.631Z,7.03
2023-03-31T01:20:44.461Z,12.68
2023-03-31T01:24:07.753Z,10.57
2023-03-31T01:27:34.906Z,5.20
2023-03-31T01:31:00.294Z,5.10
2023-03-31T01:34:19.959Z,4.05
2023-03-31T01:37:56.375Z,5.40
2023-03-31T01:41:16.744Z,5.60
2023-03-31T01:44:45.874Z,4.90
2023-03-31T01:47:59.092Z,5.43
2023-03-31T01:51:29.974Z,5.30
2023-03-31T01:54:44.054Z,8.93
2023-03-31T01:57:54.138Z,4.43
2023-03-31T02:01:06.206Z,5.35
2023-03-31T02:04:20.744Z,5.30
2023-03-31T02:07:32.290Z,7.47
2023-03-31T02:10:39.054Z,6.57
2023-03-31T02:13:47.720Z,5.63
2023-03-31T02:16:58.440Z,5.82
2023-03-31T02:20:11.230Z,17.17
2023-03-31T02:23:20.686Z,8.73
2023-03-31T02:26:31.217Z,5.78
2023-03-31T02:29:36.137Z,6.10
2023-03-31T02:32:43.621Z,6.63
2023-03-31T02:35:48.310Z,7.28
2023-03-31T02:39:05.205Z,12.50
2023-03-31T02:42:09.965Z,5.13
2023-03-31T02:45:39.708Z,5.03
2023-03-31T02:48:50.475Z,6.05
2023-03-31T02:52:25.918Z,10.32
2023-03-31T02:55:57.400Z,5.00
2023-03-31T02:59:15.224Z,4.68
2023-03-31T03:02:30.443Z,5.63
2023-03-31T03:05:54.887Z,8.68
2023-03-31T03:09:45.911Z,10.70
2023-03-31T03:13:09.185Z,8.63
2023-03-31T03:19:24.227Z,5.55
2023-03-31T03:22:28.951Z,13.70
2023-03-31T03:25:34.095Z,6.05
2023-03-31T03:28:38.705Z,9.18
2023-03-31T03:31:43.260Z,7.32
2023-03-31T03:34:47.797Z,18.60
2023-03-31T03:37:52.440Z,31.08
2023-03-31T03:40:56.985Z,15.45
2023-03-31T03:44:01.579Z,9.07
2023-03-31T03:47:06.544Z,9.93
2023-03-31T03:50:13.448Z,11.50
2023-03-31T03:53:19.277Z,11.48
2023-03-31T03:56:23.804Z,7.45
2023-03-31T03:59:28.308Z,11.27
2023-03-31T04:02:32.926Z,10.10
2023-03-31T04:05:38.016Z,7.43
2023-03-31T04:08:42.578Z,9.05
2023-03-31T04:11:47.194Z,12.45
2023-03-31T04:14:51.802Z,7.90
2023-03-31T04:17:58.176Z,10.88
2023-03-31T04:21:04.124Z,15.52
2023-03-31T04:24:08.754Z,7.78
2023-03-31T04:27:13.418Z,6.65
2023-03-31T04:30:30.783Z,8.57
2023-03-31T04:33:38.812Z,12.23
2023-03-31T04:36:48.773Z,13.05
2023-03-31T04:39:54.844Z,9.32
2023-03-31T04:42:59.353Z,10.10
2023-03-31T04:46:04.147Z,17.02
2023-03-31T04:49:09.123Z,11.90
2023-03-31T04:52:13.673Z,18.63
2023-03-31T04:55:18.306Z,15.95
2023-03-31T04:58:22.975Z,8.55
2023-03-31T05:01:27.528Z,8.45
2023-03-31T05:04:32.260Z,9.95
2023-03-31T05:07:36.836Z,7.68
2023-03-31T05:10:41.501Z,8.23
2023-03-31T05:13:46.637Z,8.43
2023-03-31T05:16:51.594Z,7.15
2023-03-31T05:19:56.134Z,8.00
2023-03-31T05:23:01.127Z,11.95
2023-03-31T05:26:06.300Z,13.45
2023-03-31T05:29:11.059Z,8.82
2023-03-31T05:32:15.611Z,9.25
2023-03-31T05:35:21.593Z,8.88
2023-03-31T05:38:31.800Z,8.95
2023-03-31T05:41:36.657Z,8.15
2023-03-31T05:44:41.152Z,8.43
2023-03-31T05:47:45.728Z,8.27
2023-03-31T05:50:50.600Z,7.28
2023-03-31T05:53:55.150Z,7.63
2023-03-31T05:56:59.819Z,7.45
2023-03-31T06:00:06.353Z,5.05
2023-03-31T06:03:10.887Z,6.57
2023-03-31T06:06:16.585Z,5.47
2023-03-31T06:09:21.598Z,6.85
2023-03-31T06:12:26.212Z,6.82
2023-03-31T06:15:31.738Z,8.10
2023-03-31T06:18:36.691Z,6.57
2023-03-31T06:21:41.233Z,6.53
2023-03-31T06:24:46.004Z,7.60
2023-03-31T06:27:50.750Z,7.25
2023-03-31T06:31:22.849Z,7.72
2023-03-31T06:34:27.480Z,8.38
2023-03-31T06:37:32.066Z,7.45
2023-03-31T06:40:37.014Z,7.50
2023-03-31T06:43:41.773Z,8.20
2023-03-31T06:46:46.560Z,7.30
2023-03-31T06:49:51.138Z,7.95
2023-03-31T06:52:55.908Z,8.52
2023-03-31T06:56:00.740Z,14.43
2023-03-31T06:59:05.493Z,11.20
2023-03-31T07:02:10.803Z,8.65
2023-03-31T07:05:15.436Z,7.35
2023-03-31T07:08:20.233Z,7.47
2023-03-31T07:11:24.946Z,7.80
2023-03-31T07:14:29.552Z,8.35
2023-03-31T07:17:34.071Z,7.15
2023-03-31T07:20:38.772Z,7.13
2023-03-31T07:23:43.477Z,7.95
2023-03-31T07:26:48.158Z,7.10
2023-03-31T07:29:52.687Z,6.63
2023-03-31T07:32:57.446Z,7.00
2023-03-31T07:36:12.856Z,7.28
2023-03-31T07:39:18.453Z,6.50
2023-03-31T07:42:22.970Z,8.15
2023-03-31T07:45:27.689Z,9.18
2023-03-31T07:48:32.502Z,10.63
2023-03-31T07:51:37.119Z,10.63
2023-03-31T07:54:41.798Z,10.18
2023-03-31T07:57:47.573Z,8.20
2023-03-31T08:00:52.160Z,8.15
2023-03-31T08:03:57.344Z,8.00
2023-03-31T08:07:01.913Z,8.68
2023-03-31T08:10:09.641Z,6.78
2023-03-31T08:13:14.217Z,7.05
2023-03-31T08:16:18.933Z,7.40
2023-03-31T08:19:24.527Z,5.75
2023-03-31T08:22:29.060Z,5.97
2023-03-31T08:25:33.694Z,6.63
2023-03-31T08:28:38.326Z,6.13
2023-03-31T08:31:42.939Z,6.95
2023-03-31T08:34:47.547Z,6.32
2023-03-31T08:37:52.039Z,6.00
2023-03-31T08:41:03.957Z,6.20
2023-03-31T08:44:17.042Z,6.30
2023-03-31T08:47:24.830Z,6.80
2023-03-31T08:50:33.482Z,6.50
2023-03-31T08:53:48.301Z,7.47
2023-03-31T08:56:52.996Z,6.60
2023-03-31T08:59:58.778Z,6.95
2023-03-31T09:03:14.521Z,7.32
2023-03-31T09:06:43.386Z,6.90
2023-03-31T09:10:32.504Z,7.50
2023-03-31T09:14:25.268Z,7.00
2023-03-31T09:17:34.457Z,6.72
2023-03-31T09:20:43.139Z,7.43
2023-03-31T09:24:19.917Z,7.43
2023-03-31T09:27:28.367Z,6.55
2023-03-31T09:30:36.660Z,6.57
2023-03-31T09:33:45.895Z,7.35
2023-03-31T09:36:50.829Z,6.40
2023-03-31T09:40:08.130Z,7.72
2023-03-31T09:43:23.233Z,6.75
2023-03-31T09:46:35.250Z,8.32
2023-03-31T09:49:41.730Z,6.40
2023-03-31T09:53:00.786Z,6.60
2023-03-31T09:56:11.567Z,6.20
2023-03-31T09:59:21.760Z,6.85
2023-03-31T10:02:32.348Z,6.15
2023-03-31T10:05:41.102Z,6.03
2023-03-31T10:08:51.855Z,6.05
2023-03-31T10:12:00.244Z,5.50
2023-03-31T10:15:25.675Z,5.78
2023-03-31T10:18:36.168Z,6.25
2023-03-31T10:21:40.764Z,5.78
2023-03-31T10:24:46.286Z,6.10
2023-03-31T10:27:53.865Z,5.82
2023-03-31T10:31:03.523Z,6.43
2023-03-31T10:34:12.867Z,5.70
2023-03-31T10:37:20.453Z,5.47
2023-03-31T10:40:28.197Z,5.25
2023-03-31T10:43:42.204Z,6.53
2023-03-31T10:46:52.865Z,4.85
2023-03-31T10:49:57.869Z,5.60
2023-03-31T10:53:11.814Z,5.68
2023-03-31T10:56:35.249Z,5.85
2023-03-31T10:59:59.717Z,4.35
2023-03-31T11:03:22.556Z,4.07
2023-03-31T11:06:27.197Z,3.95
2023-03-31T11:09:48.637Z,3.83
2023-03-31T11:13:15.805Z,4.35
2023-03-31T11:16:48.644Z,4.60
2023-03-31T11:20:12.741Z,5.25
2023-03-31T11:23:32.404Z,4.82
2023-03-31T11:26:58.879Z,4.65
2023-03-31T11:30:24.879Z,4.38
2023-03-31T11:33:47.239Z,4.57
2023-03-31T11:36:57.386Z,4.78
2023-03-31T11:40:25.635Z,4.70
2023-03-31T11:43:43.643Z,5.05
2023-03-31T11:46:55.900Z,4.30
2023-03-31T11:50:09.504Z,4.30
2023-03-31T11:53:21.120Z,3.72
2023-03-31T11:56:37.140Z,4.25
2023-03-31T11:59:43.274Z,3.60
2023-03-31T12:03:11.088Z,3.92
2023-03-31T12:06:21.311Z,3.70
2023-03-31T12:10:12.044Z,4.03
2023-03-31T12:13:41.373Z,4.60
2023-03-31T12:16:50.749Z,4.32
2023-03-31T12:19:59.602Z,3.53
2023-03-31T12:23:10.150Z,2.80
2023-03-31T12:26:39.753Z,2.53
2023-03-31T12:29:48.606Z,2.08
2023-03-31T12:32:55.524Z,1.60
2023-03-31T12:36:06.294Z,1.48
2023-03-31T12:39:50.517Z,1.30
2023-03-31T12:43:03.072Z,1.15
2023-03-31T12:46:44.197Z,1.10
2023-03-31T12:50:16.784Z,1.25
2023-03-31T12:53:52.248Z,1.38
2023-03-31T12:57:05.346Z,1.40
2023-03-31T13:00:21.065Z,1.42
2023-03-31T13:04:23.918Z,1.52
2023-03-31T13:07:29.344Z,1.40
2023-03-31T13:10:58.678Z,1.52
2023-03-31T13:14:23.371Z,2.10
2023-03-31T13:17:27.983Z,2.30
2023-03-31T13:20:35.782Z,2.20
2023-03-31T13:23:46.633Z,1.45
2023-03-31T13:26:54.192Z,1.15
2023-03-31T13:30:01.569Z,1.30
2023-03-31T13:33:17.794Z,1.40
2023-03-31T13:36:43.836Z,1.38
2023-03-31T13:40:13.526Z,1.70
2023-03-31T13:43:27.442Z,1.08
2023-03-31T13:46:51.622Z,1.40
2023-03-31T13:50:16.843Z,1.88
2023-03-31T13:53:38.114Z,2.00
2023-03-31T13:57:03.037Z,1.17
2023-03-31T14:00:46.765Z,1.55
2023-03-31T14:04:02.855Z,1.10
2023-03-31T14:07:18.262Z,2.35
2023-03-31T14:10:25.680Z,1.40
2023-03-31T14:13:30.418Z,1.67
2023-03-31T14:16:41.791Z,1.80
2023-03-31T14:19:52.567Z,1.88
2023-03-31T14:23:15.882Z,1.83
2023-03-31T14:26:42.321Z,2.05
2023-03-31T14:30:12.990Z,2.05
2023-03-31T14:34:12.163Z,2.10
2023-03-31T14:37:17.832Z,2.28
2023-03-31T14:40:24.279Z,2.03
2023-03-31T14:43:33.589Z,2.13
2023-03-31T14:46:39.194Z,1.92
2023-03-31T14:49:43.811Z,1.88
2023-03-31T14:52:50.869Z,2.08
2023-03-31T14:56:03.231Z,1.90
2023-03-31T14:59:08.583Z,2.00
2023-03-31T15:02:19.157Z,2.38
2023-03-31T15:05:34.306Z,1.70
2023-03-31T15:08:39.767Z,2.22
2023-03-31T15:11:44.374Z,1.98
2023-03-31T15:14:58.565Z,1.85
2023-03-31T15:18:03.581Z,2.05
2023-03-31T15:21:18.674Z,2.30
2023-03-31T15:24:23.965Z,2.22
2023-03-31T15:27:39.565Z,2.67
2023-03-31T15:30:47.685Z,1.95
2023-03-31T15:33:54.097Z,1.60
2023-03-31T15:36:59.938Z,1.80
2023-03-31T15:40:15.322Z,2.20
2023-03-31T15:43:43.343Z,1.30
2023-03-31T15:46:57.875Z,1.58
2023-03-31T15:50:10.067Z,2.78
2023-03-31T15:53:32.045Z,1.50
2023-03-31T15:56:45.307Z,1.63
2023-03-31T15:59:55.981Z,1.25
2023-03-31T16:03:03.883Z,1.55
2023-03-31T16:06:16.069Z,1.05
2023-03-31T16:09:45.356Z,0.95
2023-03-31T16:12:49.860Z,1.67
2023-03-31T16:15:55.851Z,0.70
2023-03-31T16:19:10.348Z,1.08
2023-03-31T16:22:30.223Z,1.20
2023-03-31T16:25:41.354Z,1.13
2023-03-31T16:28:51.119Z,1.23
2023-03-31T16:32:17.053Z,1.55
2023-03-31T16:35:21.586Z,0.80
2023-03-31T16:38:28.640Z,1.10
2023-03-31T16:41:34.754Z,1.27
2023-03-31T16:44:40.845Z,0.93
2023-03-31T16:47:46.340Z,1.20
2023-03-31T16:50:54.220Z,1.90
2023-03-31T16:53:59.453Z,1.23
2023-03-31T16:57:04.145Z,1.30
2023-03-31T17:00:09.393Z,1.20
2023-03-31T17:03:15.676Z,1.63
2023-03-31T17:06:20.323Z,1.40
2023-03-31T17:09:24.890Z,1.88
2023-03-31T17:12:29.590Z,1.67
2023-03-31T17:15:36.281Z,1.70
2023-03-31T17:18:41.401Z,1.92
2023-03-31T17:21:46.075Z,1.80
2023-03-31T17:24:56.830Z,1.80
2023-03-31T17:28:02.785Z,1.63
2023-03-31T17:31:21.514Z,1.27
2023-03-31T17:34:26.061Z,1.48
2023-03-31T17:37:30.760Z,1.80
2023-03-31T17:40:35.680Z,1.60
2023-03-31T17:43:44.492Z,1.77
2023-03-31T17:46:49.138Z,1.90
2023-03-31T17:49:54.692Z,1.95
2023-03-31T17:52:59.295Z,2.33
2023-03-31T17:56:05.888Z,2.00
2023-03-31T17:59:10.811Z,1.80
2023-03-31T18:02:16.225Z,2.28
2023-03-31T18:05:21.497Z,1.90
2023-03-31T18:08:26.101Z,1.90
2023-03-31T18:11:31.068Z,1.13
2023-03-31T18:14:35.746Z,1.10
2023-03-31T18:17:40.622Z,1.23
2023-03-31T18:20:45.349Z,1.00
2023-03-31T18:23:55.062Z,1.25
2023-03-31T18:26:59.828Z,0.80
2023-03-31T18:30:04.984Z,1.10
2023-03-31T18:33:10.936Z,0.98
2023-03-31T18:36:18.079Z,1.10
2023-03-31T18:39:22.650Z,0.90
2023-03-31T18:42:27.255Z,1.48
2023-03-31T18:45:32.756Z,1.05
2023-03-31T18:48:38.470Z,0.98
2023-03-31T18:51:42.978Z,1.27
2023-03-31T18:54:47.710Z,1.08
2023-03-31T18:57:52.252Z,0.90
2023-03-31T19:00:57.889Z,1.00
2023-03-31T19:04:02.444Z,1.05
2023-03-31T19:07:06.969Z,1.30
2023-03-31T19:10:12.131Z,1.02
2023-03-31T19:13:16.838Z,1.23
2023-03-31T19:16:22.220Z,1.20
2023-03-31T19:19:27.217Z,0.90
2023-03-31T19:22:32.255Z,1.50
2023-03-31T19:25:36.897Z,0.88
2023-03-31T19:28:41.545Z,1.15
2023-03-31T19:31:47.668Z,1.60
2023-03-31T19:34:52.753Z,1.20
2023-03-31T19:37:57.513Z,1.20
2023-03-31T19:41:04.013Z,1.30
2023-03-31T19:44:08.475Z,1.25
2023-03-31T19:47:13.282Z,1.40
2023-03-31T19:50:17.934Z,1.35
2023-03-31T19:53:23.512Z,1.42
2023-03-31T19:56:28.352Z,0.70
2023-03-31T19:59:32.848Z,0.80
2023-03-31T20:02:37.703Z,0.80
2023-03-31T20:05:42.556Z,0.70
2023-03-31T20:08:48.543Z,0.63
2023-03-31T20:11:54.019Z,0.80
2023-03-31T20:14:58.608Z,1.00
2023-03-31T20:18:03.297Z,0.73
2023-03-31T20:21:10.511Z,0.80
2023-03-31T20:24:18.297Z,0.52
2023-03-31T20:27:26.309Z,0.60
2023-03-31T20:30:30.978Z,0.70
2023-03-31T20:33:36.520Z,1.83
2023-03-31T20:36:43.369Z,0.80
2023-03-31T20:39:48.652Z,1.13
2023-03-31T20:42:54.039Z,0.55
2023-03-31T20:46:04.160Z,1.00
2023-03-31T20:49:09.122Z,0.80
2023-03-31T20:52:14.539Z,0.80
2023-03-31T20:55:19.472Z,0.90
2023-03-31T20:58:24.351Z,0.65
2023-03-31T21:01:32.348Z,0.63
2023-03-31T21:04:37.261Z,0.65
2023-03-31T21:07:41.817Z,0.60
2023-03-31T21:10:46.863Z,0.70
2023-03-31T21:13:53.190Z,0.70
2023-03-31T21:16:57.778Z,0.52
2023-03-31T21:20:03.553Z,0.70
2023-03-31T21:23:08.280Z,0.52
2023-03-31T21:26:15.555Z,0.70
2023-03-31T21:29:20.411Z,0.90
2023-03-31T21:32:28.750Z,0.70
2023-03-31T21:35:33.862Z,0.95
2023-03-31T21:38:38.753Z,0.60
2023-03-31T21:41:43.469Z,1.33
2023-03-31T21:44:48.159Z,0.70
2023-03-31T21:47:52.885Z,0.57
2023-03-31T21:51:00.614Z,0.82
2023-03-31T21:54:06.724Z,1.42
2023-03-31T21:57:11.748Z,1.25
2023-03-31T22:00:16.603Z,0.82
2023-03-31T22:03:27.290Z,0.77
2023-03-31T22:06:34.486Z,0.73
2023-03-31T22:09:39.036Z,0.82
2023-03-31T22:12:43.557Z,0.73
2023-03-31T22:15:48.360Z,1.30
2023-03-31T22:18:54.243Z,0.70
2023-03-31T22:21:59.064Z,0.73
2023-03-31T22:25:04.215Z,0.80
2023-03-31T22:28:09.548Z,0.75
2023-03-31T22:31:14.117Z,0.80
2023-03-31T22:34:21.584Z,1.30
2023-03-31T22:37:26.115Z,0.73
2023-03-31T22:40:31.256Z,1.10
2023-03-31T22:43:35.795Z,0.85
2023-03-31T22:46:40.747Z,0.60
2023-03-31T22:49:45.782Z,0.70
2023-03-31T22:52:50.852Z,0.75
2023-03-31T22:55:55.437Z,0.60
2023-03-31T22:58:59.998Z,0.65
2023-03-31T23:02:04.846Z,1.38
2023-03-31T23:05:09.972Z,1.50
2023-03-31T23:08:14.517Z,0.68
2023-03-31T23:11:19.369Z,0.57
2023-03-31T23:14:23.868Z,0.82
2023-03-31T23:17:28.478Z,0.95
2023-03-31T23:20:33.061Z,0.85
2023-03-31T23:23:37.844Z,1.00
2023-03-31T23:26:42.384Z,0.70
2023-03-31T23:29:47.110Z,1.20
2023-03-31T23:32:52.654Z,0.88
2023-03-31T23:36:01.082Z,0.80
2023-03-31T23:39:08.760Z,0.98
2023-03-31T23:42:16.128Z,0.75
2023-03-31T23:45:20.672Z,0.80
2023-03-31T23:48:25.621Z,1.20
2023-03-31T23:51:30.443Z,1.00
2023-03-31T23:54:34.996Z,1.33
2023-03-31T23:57:39.612Z,0.73
